createdAt,value
2023-02-13T00:02:20.727Z,103618.16
2023-02-13T00:07:22.843Z,103612.81
2023-02-13T00:12:25.274Z,103620.72
2023-02-13T00:17:27.787Z,103613.69
2023-02-13T00:22:29.975Z,103617.19
2023-02-13T00:27:32.189Z,103603.16
2023-02-13T00:32:34.833Z,103604.91
2023-02-13T00:37:37.037Z,103611.03
2023-02-13T00:42:39.218Z,103602.28
2023-02-13T00:47:41.454Z,103607.59
2023-02-13T00:52:44.445Z,103597.09
2023-02-13T00:57:48.022Z,103595.34
2023-02-13T01:02:50.102Z,103596.22
2023-02-13T01:07:53.613Z,103594.44
2023-02-13T01:12:55.785Z,103597.97
2023-02-13T01:17:58.084Z,103605.81
2023-02-13T01:23:01.454Z,103594.44
2023-02-13T01:28:03.684Z,103601.47
2023-02-13T01:33:05.769Z,103595.28
2023-02-13T01:38:08.630Z,103604.09
2023-02-13T01:43:12.900Z,103585.78
2023-02-13T01:48:22.842Z,103591.91
2023-02-13T01:53:44.496Z,103602.44
2023-02-13T01:58:51.728Z,103605.94
2023-02-13T02:03:59.982Z,103605.06
2023-02-13T02:09:14.318Z,103610.34
2023-02-13T02:14:16.646Z,103609.47
2023-02-13T02:19:51.058Z,103611.22
2023-02-13T02:25:14.497Z,103601.56
2023-02-13T02:30:37.301Z,103599.78
2023-02-13T02:36:12.159Z,103593.59
2023-02-13T02:41:41.890Z,103594.47
2023-02-13T02:47:27.246Z,103591.88
2023-02-13T02:52:58.575Z,103596.28
2023-02-13T02:59:04.545Z,103605.94
2023-02-13T03:04:51.379Z,103608.56
2023-02-13T03:10:16.177Z,103616.47
2023-02-13T03:15:18.307Z,103611.28
2023-02-13T03:21:04.521Z,103613.06
2023-02-13T03:26:45.693Z,103611.28
2023-02-13T03:32:08.230Z,103617.38
2023-02-13T03:37:29.416Z,103636.69
2023-02-13T03:42:40.227Z,103641.94
2023-02-13T03:47:45.237Z,103641.94
2023-02-13T03:53:02.296Z,103634.91
2023-02-13T03:58:34.499Z,103646.34
2023-02-13T04:03:45.262Z,103638.44
2023-02-13T04:08:47.524Z,103642.03
2023-02-13T04:14:01.784Z,103649.06
2023-02-13T04:19:06.658Z,103650.81
2023-02-13T04:24:09.697Z,103650.81
2023-02-13T04:29:11.916Z,103659.59
2023-02-13T04:34:14.058Z,103669.22
2023-02-13T04:39:16.370Z,103650.81
2023-02-13T04:44:18.438Z,103648.22
2023-02-13T04:49:20.537Z,103659.66
2023-02-13T04:54:22.671Z,103657.00
2023-02-13T04:59:24.769Z,103664.03
2023-02-13T05:04:27.355Z,103665.78
2023-02-13T05:09:29.517Z,103663.97
2023-02-13T05:14:31.707Z,103655.25
2023-02-13T05:19:33.712Z,103653.50
2023-02-13T05:24:35.863Z,103650.88
2023-02-13T05:29:37.957Z,103650.88
2023-02-13T05:34:40.033Z,103641.22
2023-02-13T05:39:42.342Z,103640.34
2023-02-13T05:44:44.542Z,103643.84
2023-02-13T05:49:46.718Z,103648.19
2023-02-13T05:54:48.938Z,103654.38
2023-02-13T05:59:51.187Z,103632.53
2023-02-13T06:04:53.314Z,103643.00
2023-02-13T06:09:55.502Z,103643.03
2023-02-13T06:14:57.665Z,103644.78
2023-02-13T06:19:59.845Z,103639.47
2023-02-13T06:25:02.031Z,103643.84
2023-02-13T06:30:04.473Z,103644.75
2023-02-13T06:35:07.218Z,103650.94
2023-02-13T06:40:11.146Z,103656.19
2023-02-13T06:45:14.361Z,103656.22
2023-02-13T06:50:17.546Z,103660.59
2023-02-13T06:55:21.140Z,103671.94
2023-02-13T07:00:26.099Z,103675.47
2023-02-13T07:05:28.960Z,103686.91
2023-02-13T07:10:31.119Z,103694.81
2023-02-13T07:15:35.125Z,103698.34
2023-02-13T07:20:37.602Z,103697.47
2023-02-13T07:25:39.791Z,103702.72
2023-02-13T07:30:41.927Z,103700.09
2023-02-13T07:35:51.802Z,103691.31
2023-02-13T07:40:53.848Z,103700.97
2023-02-13T07:46:00.408Z,103710.63
2023-02-13T07:51:05.988Z,103708.00
2023-02-13T07:56:09.652Z,103705.41
2023-02-13T08:01:14.433Z,103706.25
2023-02-13T08:06:17.326Z,103703.66
2023-02-13T08:11:52.233Z,103731.69
2023-02-13T08:16:55.487Z,103737.84
2023-02-13T08:21:57.929Z,103743.16
2023-02-13T08:27:00.068Z,103751.00
2023-02-13T08:32:02.205Z,103756.31
2023-02-13T08:37:05.228Z,103761.53
2023-02-13T08:42:07.672Z,103758.91
2023-02-13T08:47:10.294Z,103759.78
2023-02-13T08:52:13.787Z,103766.78
2023-02-13T08:57:15.933Z,103758.94
2023-02-13T09:02:18.016Z,103765.09
2023-02-13T09:07:20.130Z,103769.47
2023-02-13T09:12:22.340Z,103765.09
2023-02-13T09:17:24.509Z,103765.09
2023-02-13T09:22:26.633Z,103773.81
2023-02-13T09:27:28.716Z,103785.22
2023-02-13T09:32:30.873Z,103781.72
2023-02-13T09:37:33.325Z,103774.75
2023-02-13T09:42:37.218Z,103788.78
2023-02-13T09:47:44.177Z,103787.03
2023-02-13T09:52:47.186Z,103788.78
2023-02-13T09:58:05.919Z,103784.41
2023-02-13T10:03:31.045Z,103780.03
2023-02-13T10:08:42.886Z,103792.31
2023-02-13T10:14:15.557Z,103788.78
2023-02-13T10:19:30.485Z,103778.22
2023-02-13T10:24:43.701Z,103779.09
2023-02-13T10:30:09.424Z,103785.22
2023-02-13T10:35:28.406Z,103782.59
2023-02-13T10:40:37.820Z,103783.47
2023-02-13T10:46:04.593Z,103792.25
2023-02-13T10:51:51.441Z,103798.38
2023-02-13T10:56:59.067Z,103801.91
2023-02-13T11:02:28.262Z,103787.00
2023-02-13T11:07:31.660Z,103792.25
2023-02-13T11:12:34.550Z,103790.50
2023-02-13T11:17:40.935Z,103776.47
2023-02-13T11:22:43.403Z,103773.81
2023-02-13T11:27:46.598Z,103763.28
2023-02-13T11:33:00.126Z,103754.50
2023-02-13T11:38:20.526Z,103756.25
2023-02-13T11:43:30.332Z,103752.75
2023-02-13T11:48:32.717Z,103743.97
2023-02-13T11:53:40.422Z,103744.81
2023-02-13T11:58:43.791Z,103738.66
2023-02-13T12:04:02.874Z,103740.41
2023-02-13T12:09:06.473Z,103715.06
2023-02-13T12:14:14.425Z,103729.88
2023-02-13T12:19:29.997Z,103728.19
2023-02-13T12:24:53.437Z,103719.41
2023-02-13T12:30:57.490Z,103715.88
2023-02-13T12:36:27.565Z,103712.38
2023-02-13T12:41:42.280Z,103715.00
2023-02-13T12:47:16.668Z,103708.88
2023-02-13T12:52:36.626Z,103700.91
2023-02-13T12:58:03.675Z,103693.88
2023-02-13T13:03:35.702Z,103687.75
2023-02-13T13:09:07.790Z,103692.13
2023-02-13T13:14:38.453Z,103686.88
2023-02-13T13:19:56.650Z,103686.00
2023-02-13T13:25:01.380Z,103683.34
2023-02-13T13:30:25.493Z,103678.06
2023-02-13T13:35:28.813Z,103684.22
2023-02-13T13:40:40.042Z,103686.00
2023-02-13T13:46:04.105Z,103689.50
2023-02-13T13:51:18.677Z,103695.66
2023-02-13T13:56:20.792Z,103693.00
2023-02-13T14:01:26.080Z,103695.66
2023-02-13T14:06:46.331Z,103684.25
2023-02-13T14:11:48.458Z,103684.22
2023-02-13T14:16:50.934Z,103686.88
2023-02-13T14:21:54.915Z,103689.50
2023-02-13T14:27:05.328Z,103685.09
2023-02-13T14:32:18.237Z,103679.78
2023-02-13T14:37:30.420Z,103687.69
2023-02-13T14:42:34.337Z,103683.28
2023-02-13T14:47:43.097Z,103685.03
2023-02-13T14:52:48.071Z,103685.03
2023-02-13T14:57:54.490Z,103672.75
2023-02-13T15:03:01.509Z,103674.50
2023-02-13T15:08:15.042Z,103671.00
2023-02-13T15:13:41.148Z,103667.53
2023-02-13T15:18:49.155Z,103666.66
2023-02-13T15:23:55.766Z,103650.06
2023-02-13T15:29:17.488Z,103661.34
2023-02-13T15:34:32.420Z,103661.34
2023-02-13T15:39:34.682Z,103653.44
2023-02-13T15:44:38.598Z,103635.94
2023-02-13T15:49:45.796Z,103650.78
2023-02-13T15:54:51.512Z,103650.75
2023-02-13T15:59:55.780Z,103635.81
2023-02-13T16:04:59.068Z,103639.38
2023-02-13T16:10:18.037Z,103651.63
2023-02-13T16:15:22.115Z,103656.00
2023-02-13T16:20:29.953Z,103655.16
2023-02-13T16:25:38.943Z,103642.00
2023-02-13T16:30:43.831Z,103635.88
2023-02-13T16:35:59.484Z,103637.63
2023-02-13T16:41:19.854Z,103635.81
2023-02-13T16:46:33.875Z,103641.97
2023-02-13T16:51:59.763Z,103653.38
2023-02-13T16:57:17.799Z,103659.50
2023-02-13T17:02:24.444Z,103666.53
2023-02-13T17:07:29.249Z,103675.31
2023-02-13T17:12:34.804Z,103657.84
2023-02-13T17:17:36.871Z,103676.19
2023-02-13T17:22:50.785Z,103674.50
2023-02-13T17:27:55.951Z,103663.16
2023-02-13T17:33:12.168Z,103681.50
2023-02-13T17:38:14.461Z,103677.09
2023-02-13T17:43:18.856Z,103682.34
2023-02-13T17:48:21.257Z,103678.84
2023-02-13T17:53:30.194Z,103689.41
2023-02-13T17:58:32.321Z,103705.16
2023-02-13T18:03:34.408Z,103692.03
2023-02-13T18:08:36.478Z,103695.50
2023-02-13T18:13:38.609Z,103701.66
2023-02-13T18:18:40.850Z,103701.66
2023-02-13T18:23:42.978Z,103711.31
2023-02-13T18:28:45.131Z,103712.16
2023-02-13T18:33:47.509Z,103715.69
2023-02-13T18:38:51.600Z,103717.44
2023-02-13T18:43:57.589Z,103706.91
2023-02-13T18:48:59.708Z,103718.31
2023-02-13T18:54:01.920Z,103719.22
2023-02-13T18:59:04.096Z,103727.13
2023-02-13T19:04:06.784Z,103730.63
2023-02-13T19:09:09.169Z,103729.75
2023-02-13T19:14:13.847Z,103725.34
2023-02-13T19:19:15.971Z,103731.47
2023-02-13T19:24:18.830Z,103736.75
2023-02-13T19:29:20.957Z,103732.31
2023-02-13T19:34:22.997Z,103734.06
2023-02-13T19:39:25.179Z,103724.41
2023-02-13T19:44:27.279Z,103717.47
2023-02-13T19:49:29.373Z,103727.13
2023-02-13T19:54:31.762Z,103730.63
2023-02-13T19:59:33.883Z,103724.47
2023-02-13T20:04:37.065Z,103715.81
2023-02-13T20:09:40.766Z,103734.19
2023-02-13T20:14:42.809Z,103727.13
2023-02-13T20:19:44.966Z,103732.38
2023-02-13T20:24:47.446Z,103736.81
2023-02-13T20:29:50.180Z,103735.94
2023-02-13T20:34:59.572Z,103731.50
2023-02-13T20:40:02.668Z,103749.06
2023-02-13T20:45:05.359Z,103750.88
2023-02-13T20:50:07.792Z,103742.94
2023-02-13T20:55:09.972Z,103743.84
2023-02-13T21:00:13.358Z,103746.44
2023-02-13T21:05:15.499Z,103741.16
2023-02-13T21:10:18.190Z,103742.91
2023-02-13T21:15:20.380Z,103738.53
2023-02-13T21:20:22.397Z,103734.13
2023-02-13T21:25:24.457Z,103732.38
2023-02-13T21:30:26.706Z,103734.06
2023-02-13T21:35:29.005Z,103732.31
2023-02-13T21:40:31.049Z,103732.38
2023-02-13T21:45:33.149Z,103730.63
2023-02-13T21:50:35.277Z,103730.69
2023-02-13T21:55:37.466Z,103726.28
2023-02-13T22:00:39.668Z,103735.91
2023-02-13T22:05:48.618Z,103742.91
2023-02-13T22:10:59.052Z,103736.75
2023-02-13T22:16:04.847Z,103728.88
2023-02-13T22:21:09.210Z,103734.13
2023-02-13T22:26:24.844Z,103739.41
2023-02-13T22:31:27.250Z,103728.84
2023-02-13T22:36:29.536Z,103728.84
2023-02-13T22:41:31.698Z,103720.97
2023-02-13T22:46:34.472Z,103704.41
2023-02-13T22:51:37.516Z,103721.91
2023-02-13T22:56:39.756Z,103714.03
2023-02-13T23:01:41.849Z,103714.91
2023-02-13T23:06:43.962Z,103709.59
2023-02-13T23:12:04.621Z,103721.84
2023-02-13T23:17:25.277Z,103714.88
2023-02-13T23:22:27.385Z,103722.78
2023-02-13T23:27:29.445Z,103718.44
2023-02-13T23:32:31.676Z,103718.44
2023-02-13T23:37:33.894Z,103707.03
2023-02-13T23:42:36.131Z,103697.34
2023-02-13T23:47:38.578Z,103694.69
2023-02-13T23:52:40.678Z,103696.47
2023-02-13T23:57:42.905Z,103693.88
